createdAt,value
2023-01-17T00:00:08.429Z,32.5
2023-01-17T00:06:14.975Z,32.5
2023-01-17T00:12:21.553Z,32.4
2023-01-17T00:18:28.153Z,32.2
2023-01-17T00:24:34.743Z,32.3
2023-01-17T00:30:41.333Z,32.3
2023-01-17T00:36:47.943Z,32.3
2023-01-17T00:42:54.537Z,32.4
2023-01-17T00:49:01.139Z,32.4
2023-01-17T00:55:07.722Z,32.3
2023-01-17T01:01:14.387Z,32.4
2023-01-17T01:07:20.921Z,32.6
2023-01-17T01:13:27.305Z,32.5
2023-01-17T01:19:34.087Z,32.6
2023-01-17T01:25:40.511Z,32.5
2023-01-17T01:31:47.334Z,32.3
2023-01-17T01:37:53.693Z,32.5
2023-01-17T01:44:00.286Z,32.4
2023-01-17T01:50:06.892Z,32.3
2023-01-17T01:56:13.457Z,32.3
2023-01-17T02:02:19.859Z,32.2
2023-01-17T02:08:26.452Z,32.5
2023-01-17T02:14:32.871Z,32.2
2023-01-17T02:20:39.848Z,32.4
2023-01-17T02:26:46.242Z,32.2
2023-01-17T02:32:52.844Z,32.1
2023-01-17T02:38:59.245Z,32.4
2023-01-17T02:45:05.818Z,32.4
2023-01-17T02:51:12.214Z,32.3
2023-01-17T02:57:18.811Z,32.2
2023-01-17T03:03:25.201Z,32.2
2023-01-17T03:09:31.798Z,32.2
2023-01-17T03:15:38.379Z,32.2
2023-01-17T03:21:45.382Z,32.3
2023-01-17T03:27:51.765Z,32.2
2023-01-17T03:33:58.380Z,32.3
2023-01-17T03:40:04.773Z,32.1
2023-01-17T03:46:11.434Z,32.2
2023-01-17T03:52:17.738Z,32.4
2023-01-17T03:58:24.362Z,32.1
2023-01-17T04:10:53.737Z,31.9
2023-01-17T04:17:00.112Z,32.3
2023-01-17T04:23:06.904Z,32
2023-01-17T04:29:13.298Z,32
2023-01-17T04:35:19.896Z,32
2023-01-17T04:41:26.299Z,31.8
2023-01-17T04:47:32.890Z,32.1
2023-01-17T04:53:39.287Z,32.1
2023-01-17T04:59:45.863Z,31.8
2023-01-17T05:05:52.253Z,31.9
2023-01-17T05:11:58.852Z,31.9
2023-01-17T05:18:05.237Z,31.6
2023-01-17T05:24:12.255Z,31.7
2023-01-17T05:30:18.639Z,31.9
2023-01-17T05:36:25.224Z,31.7
2023-01-17T05:42:31.608Z,32
2023-01-17T05:48:38.205Z,31.8
2023-01-17T05:54:44.607Z,32
2023-01-17T06:00:51.460Z,31.4
2023-01-17T06:06:57.833Z,31.8
2023-01-17T06:13:04.395Z,31.7
2023-01-17T06:19:10.780Z,31.8
2023-01-17T06:25:17.595Z,31.6
2023-01-17T06:31:24.199Z,31.6
2023-01-17T06:37:30.782Z,31.6
2023-01-17T06:43:37.166Z,31.7
2023-01-17T06:49:43.768Z,31.6
2023-01-17T06:55:50.139Z,31.4
2023-01-17T07:01:56.734Z,31.4
2023-01-17T07:08:03.132Z,31.7
2023-01-17T07:14:09.733Z,31.6
2023-01-17T07:20:16.125Z,31.6
2023-01-17T07:26:22.732Z,31.5
2023-01-17T07:32:29.149Z,31.3
2023-01-17T07:38:35.695Z,31.3
2023-01-17T07:44:44.984Z,31.4
2023-01-17T07:50:51.560Z,31.4
2023-01-17T07:56:57.967Z,31.5
2023-01-17T08:03:04.536Z,31.3
2023-01-17T08:09:11.133Z,31.6
2023-01-17T08:15:19.768Z,31.3
2023-01-17T08:21:26.373Z,31.5
2023-01-17T08:27:35.506Z,31.4
2023-01-17T08:33:41.812Z,31.3
2023-01-17T08:39:48.432Z,31.6
2023-01-17T08:45:54.843Z,31.5
2023-01-17T08:52:01.409Z,31.4
2023-01-17T08:58:08.200Z,31.5
2023-01-17T09:04:15.505Z,31.7
2023-01-17T09:10:22.014Z,31.6
2023-01-17T09:16:28.636Z,31.7
2023-01-17T09:22:34.985Z,31.7
2023-01-17T09:28:42.198Z,31.6
2023-01-17T09:34:49.007Z,31.5
2023-01-17T09:40:58.059Z,31.4
2023-01-17T09:47:04.535Z,31.4
2023-01-17T09:53:11.241Z,31.4
2023-01-17T09:59:21.944Z,31.3
2023-01-17T10:05:28.544Z,31.4
2023-01-17T10:11:35.339Z,31.4
2023-01-17T10:17:42.128Z,31.2
2023-01-17T10:23:48.738Z,31.4
2023-01-17T10:29:55.360Z,31.1
2023-01-17T10:36:01.926Z,30.8
2023-01-17T10:42:08.489Z,30.7
2023-01-17T10:48:15.116Z,31.1
2023-01-17T10:54:21.530Z,31.1
2023-01-17T11:00:28.107Z,30.8
2023-01-17T11:06:34.724Z,30.8
2023-01-17T11:12:41.290Z,30.9
2023-01-17T11:18:47.876Z,30.8
2023-01-17T11:24:54.459Z,30.8
2023-01-17T11:31:01.128Z,30.7
2023-01-17T11:37:07.651Z,30.8
2023-01-17T11:43:14.263Z,30.6
2023-01-17T11:49:20.650Z,30.7
2023-01-17T11:55:27.257Z,30.8
2023-01-17T12:01:33.642Z,30.7
2023-01-17T12:07:40.236Z,31
2023-01-17T12:13:46.611Z,30.3
2023-01-17T12:19:53.225Z,30.7
2023-01-17T12:25:59.607Z,30.5
2023-01-17T12:32:06.412Z,30.4
2023-01-17T12:38:31.511Z,30.6
2023-01-17T12:44:38.645Z,30.6
2023-01-17T12:50:45.243Z,30.6
2023-01-17T12:56:51.824Z,30.5
2023-01-17T13:02:58.436Z,30.4
2023-01-17T13:09:05.015Z,30.3
2023-01-17T13:15:11.837Z,30.3
2023-01-17T13:21:18.414Z,30.6
2023-01-17T13:27:25.021Z,30.6
2023-01-17T13:33:31.610Z,30.7
2023-01-17T13:39:38.212Z,30.6
2023-01-17T13:45:44.833Z,30.4
2023-01-17T13:51:51.417Z,30.7
2023-01-17T13:57:57.970Z,30.8
2023-01-17T14:04:04.582Z,30.4
2023-01-17T14:10:11.366Z,30.4
2023-01-17T14:16:18.002Z,30.3
2023-01-17T14:22:24.574Z,30.4
2023-01-17T14:28:31.164Z,30.7
2023-01-17T14:34:37.862Z,30.5
2023-01-17T14:40:44.585Z,30.5
2023-01-17T14:46:51.164Z,30.5
2023-01-17T14:52:57.766Z,30.4
2023-01-17T14:59:04.335Z,30.8
2023-01-17T15:05:10.939Z,30.5
2023-01-17T15:11:17.544Z,30.8
2023-01-17T15:17:24.136Z,30.5
2023-01-17T15:23:30.730Z,30.8
2023-01-17T15:29:37.370Z,30.6
2023-01-17T15:35:43.925Z,31
2023-01-17T15:41:50.507Z,30.7
2023-01-17T15:47:57.106Z,30.6
2023-01-17T15:54:03.702Z,31.2
2023-01-17T16:00:10.337Z,31
2023-01-17T16:06:16.893Z,30.9
2023-01-17T16:12:23.516Z,30.7
2023-01-17T16:18:30.116Z,31.1
2023-01-17T16:24:36.682Z,31.2
2023-01-17T16:30:43.315Z,31.2
2023-01-17T16:36:49.656Z,31.2
2023-01-17T16:42:56.263Z,31.2
2023-01-17T16:49:02.851Z,31.1
2023-01-17T16:55:09.462Z,31.4
2023-01-17T17:01:16.624Z,31.3
2023-01-17T17:07:23.250Z,31.5
2023-01-17T17:13:30.263Z,31.3
2023-01-17T17:19:37.086Z,31.4
2023-01-17T17:25:43.663Z,31.4
2023-01-17T17:31:50.255Z,31.6
2023-01-17T17:37:57.453Z,31.4
2023-01-17T17:44:04.060Z,31.5
2023-01-17T17:50:10.655Z,31.5
2023-01-17T17:56:17.251Z,31.8
2023-01-17T18:02:23.850Z,31.8
2023-01-17T18:08:30.447Z,31.7
2023-01-17T18:14:37.117Z,31.6
2023-01-17T18:20:53.579Z,31.6
2023-01-17T18:27:00.877Z,31.7
2023-01-17T18:33:07.465Z,31.8
2023-01-17T18:39:14.077Z,31.7
2023-01-17T18:45:20.657Z,31.7
2023-01-17T18:51:27.260Z,31.7
2023-01-17T18:57:33.861Z,31.7
2023-01-17T19:03:40.677Z,31.7
2023-01-17T19:09:47.247Z,31.9
2023-01-17T19:15:53.706Z,31.9
2023-01-17T19:22:00.243Z,32
2023-01-17T19:28:06.616Z,31.9
2023-01-17T19:34:13.240Z,32
2023-01-17T19:40:19.624Z,32
2023-01-17T19:46:26.223Z,32
2023-01-17T19:52:32.609Z,32
2023-01-17T19:58:39.815Z,31.9
2023-01-17T20:04:46.182Z,32
2023-01-17T20:10:53.010Z,32
2023-01-17T20:16:59.576Z,32.1
2023-01-17T20:23:06.208Z,32
2023-01-17T20:29:12.785Z,32
2023-01-17T20:35:19.381Z,32
2023-01-17T20:41:25.823Z,32.2
2023-01-17T20:47:33.176Z,32.2
2023-01-17T20:53:39.608Z,32
2023-01-17T20:59:46.366Z,32
2023-01-17T21:05:52.761Z,32
2023-01-17T21:11:59.379Z,32.1
2023-01-17T21:18:05.729Z,32
2023-01-17T21:24:12.338Z,32.2
2023-01-17T21:30:18.722Z,32
2023-01-17T21:36:25.331Z,32.2
2023-01-17T21:42:31.740Z,32.1
2023-01-17T21:48:38.522Z,32
2023-01-17T21:54:44.900Z,32.1
2023-01-17T22:00:52.982Z,32.1
2023-01-17T22:06:59.328Z,32.2
2023-01-17T22:13:06.136Z,32.2
2023-01-17T22:19:12.523Z,32.3
2023-01-17T22:25:19.324Z,32.3
2023-01-17T22:31:25.972Z,32.1
2023-01-17T22:37:32.522Z,32.3
2023-01-17T22:43:39.134Z,32.3
2023-01-17T22:49:45.724Z,32.2
2023-01-17T22:55:53.527Z,32.3
2023-01-17T23:02:00.328Z,32.2
2023-01-17T23:08:06.518Z,32.2
2023-01-17T23:14:12.723Z,32.3
2023-01-17T23:20:18.654Z,32.2
2023-01-17T23:26:24.870Z,32.2
2023-01-17T23:32:31.046Z,32.2
2023-01-17T23:38:37.682Z,32.2
2023-01-17T23:44:43.631Z,32.1
2023-01-17T23:50:49.707Z,32.3
2023-01-17T23:56:55.570Z,32.2
